Terminal Aerodrome Forecast
Issued by NWS Tallahassee, FL

Home | Current Version | Previous Version | Text Only | Print | Product List | Glossary On
Versions: 1 2 3 4 5 6 7 8 9 10 11 12 13 14 15 16 17 18 19 20 21
998
FTUS42 KTAE 182328
TAFTLH
TAF
KTLH 182328Z 1900/1924 18005KT P6SM SCT250
     FM190400 VRB03KT 3SM BR SCT004
     FM190600 00000KT 1/2SM FG OVC001
     FM191400 VRB03KT 4SM BR BKN002
     FM191500 VRB04KT P6SM SCT006 BKN015
     FM191600 15007KT P6SM BKN050=

USA.gov is the U.S. government's official web portal to all federal, state and local government web resources and services.